Hudson, Kentucky
Current Conditions -  °F | °C
As of 9:58 AM on Sunday 25 Jan 2015 (Local Time) from KFTK Reporting Station
Few Clouds Few Clouds  
Wind Chill:   Ceiling: Unl
Heat Index:   Visibility: 10mi
Dew Point:   Wind: 13mph
Humidity: 73%   Direction: 170°S
Pressure: 29.7"   Gusts: NA
Location:  37.65°N, 86.28°W
Report Text: KFTK 251558Z AUTO 17011KT 10SM FEW080 05/01 A2970 RMK AO2 SLP065 T00510006
Loading
Personal Weather Stations






























Interactive Weather Map New forecast layout! Learn more

10-Day Weather Forecast

Advertisements
Track Severe Weather on mobile